ROMMA est une association bénévole à but non lucratif. Votre soutien est indispensable : ADHERER à ROMMA ou FAIRE un DON

Recoubeau - (26, Drôme)

Diois (510 m)   Longitude: 5° 24' E   Latitude: 44° 39' N Station partenaire n°64
 

Détail journalier du     <<     >>

Température Precipitation Humidité Pression Vent Dir Rafale Dir. rafale
Heure (°C) (mm) (%) (hPa) (km/h) (km/h)
01:00 5.007510205S19NNO
02:00 5.007610203ESE23NO
03:00 3.608310202SE8SE
04:00 3.808210192N15E
05:00 6.606910197O19OSO
06:00 6.906610196ONO18O
07:00 4.10801019010NO
08:00 6.307610191N6NNE
09:00 8.906010199NO32ONO
10:00 10.6056101913NO32NNO
11:00 11.6052101915NNO31NNO
12:00 12.4054101816NNO32NO
13:00 12.5049101818NO40NO
14:00 13.3051101819NNO37NNO
15:00 13.8052101818NNO39N
16:00 13.1051101817NNO37N
17:00 12.5052101819NNO40NO
18:00 12.5054101815NO34NO
19:00 11.3059101817NO35NNO
20:00 9.9062101813NO32NO
21:00 9.5063101811NO26NNO
22:00 7.407210193NO21ONO
23:00 5.608210191SE10SE
minuit 4.808410182SE8SE

Graphique du 29-04-2019

 

Serveur OMMA